Terminal Aerodrome Forecast
Issued by NWS Charleston, WV

Current Version | Previous Version | Text Only | Print | Product List | Glossary Off
Versions: 1 2 3 4 5 6 7 8 9 10 11 12 13 14 15 16 17 18 19 20 21 22 23 24 25 26 27

000
FTUS41 KRLX 190857 AAA
TAFPKB
TAF AMD
KPKB 190857Z 1909/2006 00000KT 1/4SM FG VV001
     FM191400 VRB03KT P6SM SCT070
     FM192300 07003KT P6SM BKN080=

USA.gov is the U.S. government's official web portal to all federal, state and local government web resources and services.